sensor_id;sensor_type;location;lat;lon;timestamp;P1;durP1;ratioP1;P2;durP2;ratioP2
12869;SDS011;6503;48.572;13.460;2022-09-09T00:00:01;5.88;;;2.10;;
12869;SDS011;6503;48.572;13.460;2022-09-09T00:02:40;8.52;;;2.30;;
12869;SDS011;6503;48.572;13.460;2022-09-09T00:05:20;3.22;;;1.92;;
12869;SDS011;6503;48.572;13.460;2022-09-09T00:07:58;3.70;;;2.50;;
12869;SDS011;6503;48.572;13.460;2022-09-09T00:10:30;2.55;;;2.33;;
12869;SDS011;6503;48.572;13.460;2022-09-09T00:13:09;6.30;;;2.05;;
12869;SDS011;6503;48.572;13.460;2022-09-09T00:15:52;4.53;;;2.25;;
12869;SDS011;6503;48.572;13.460;2022-09-09T00:18:28;4.53;;;2.15;;
12869;SDS011;6503;48.572;13.460;2022-09-09T00:21:08;4.22;;;2.03;;
12869;SDS011;6503;48.572;13.460;2022-09-09T00:23:44;5.10;;;2.25;;
12869;SDS011;6503;48.572;13.460;2022-09-09T00:26:18;2.90;;;2.15;;
12869;SDS011;6503;48.572;13.460;2022-09-09T00:29:03;6.53;;;2.70;;
12869;SDS011;6503;48.572;13.460;2022-09-09T00:31:40;7.10;;;2.92;;
12869;SDS011;6503;48.572;13.460;2022-09-09T00:34:12;17.88;;;3.00;;
12869;SDS011;6503;48.572;13.460;2022-09-09T00:36:43;7.30;;;2.58;;
12869;SDS011;6503;48.572;13.460;2022-09-09T00:39:19;5.70;;;2.78;;
12869;SDS011;6503;48.572;13.460;2022-09-09T00:41:59;3.80;;;2.90;;
12869;SDS011;6503;48.572;13.460;2022-09-09T00:44:49;3.40;;;2.60;;
12869;SDS011;6503;48.572;13.460;2022-09-09T00:50:25;4.03;;;3.05;;
12869;SDS011;6503;48.572;13.460;2022-09-09T00:53:24;9.80;;;3.67;;
12869;SDS011;6503;48.572;13.460;2022-09-09T00:56:08;5.80;;;3.10;;
12869;SDS011;6503;48.572;13.460;2022-09-09T00:58:43;14.40;;;4.57;;
12869;SDS011;6503;48.572;13.460;2022-09-09T01:01:24;4.95;;;3.70;;
12869;SDS011;6503;48.572;13.460;2022-09-09T01:03:54;5.25;;;3.72;;
12869;SDS011;6503;48.572;13.460;2022-09-09T01:06:27;5.35;;;3.67;;
12869;SDS011;6503;48.572;13.460;2022-09-09T01:09:11;8.77;;;4.00;;
12869;SDS011;6503;48.572;13.460;2022-09-09T01:11:49;5.95;;;3.78;;
12869;SDS011;6503;48.572;13.460;2022-09-09T01:17:15;10.10;;;5.28;;
12869;SDS011;6503;48.572;13.460;2022-09-09T01:19:53;7.75;;;4.30;;
12869;SDS011;6503;48.572;13.460;2022-09-09T01:25:11;10.23;;;5.63;;
12869;SDS011;6503;48.572;13.460;2022-09-09T01:27:59;12.95;;;6.32;;
12869;SDS011;6503;48.572;13.460;2022-09-09T01:30:31;8.50;;;4.90;;
12869;SDS011;6503;48.572;13.460;2022-09-09T01:33:03;7.93;;;4.53;;
12869;SDS011;6503;48.572;13.460;2022-09-09T01:35:37;23.60;;;6.70;;
12869;SDS011;6503;48.572;13.460;2022-09-09T01:38:12;25.17;;;6.00;;
12869;SDS011;6503;48.572;13.460;2022-09-09T01:40:44;10.93;;;6.30;;
12869;SDS011;6503;48.572;13.460;2022-09-09T01:43:16;19.65;;;7.03;;
12869;SDS011;6503;48.572;13.460;2022-09-09T01:45:46;25.77;;;8.02;;
12869;SDS011;6503;48.572;13.460;2022-09-09T01:48:18;12.55;;;7.78;;
12869;SDS011;6503;48.572;13.460;2022-09-09T01:50:49;23.20;;;7.88;;
12869;SDS011;6503;48.572;13.460;2022-09-09T01:53:19;26.38;;;7.85;;
12869;SDS011;6503;48.572;13.460;2022-09-09T01:55:51;14.20;;;7.78;;
12869;SDS011;6503;48.572;13.460;2022-09-09T01:58:33;17.33;;;9.05;;
12869;SDS011;6503;48.572;13.460;2022-09-09T02:01:12;13.85;;;8.55;;
12869;SDS011;6503;48.572;13.460;2022-09-09T02:03:51;16.35;;;8.52;;
12869;SDS011;6503;48.572;13.460;2022-09-09T02:06:25;10.65;;;8.07;;
12869;SDS011;6503;48.572;13.460;2022-09-09T02:08:59;11.80;;;8.10;;
12869;SDS011;6503;48.572;13.460;2022-09-09T02:11:32;11.40;;;7.65;;
12869;SDS011;6503;48.572;13.460;2022-09-09T02:14:06;12.70;;;8.65;;
12869;SDS011;6503;48.572;13.460;2022-09-09T02:16:39;11.07;;;8.25;;
12869;SDS011;6503;48.572;13.460;2022-09-09T02:19:13;13.63;;;9.45;;
12869;SDS011;6503;48.572;13.460;2022-09-09T02:21:50;11.52;;;8.93;;
12869;SDS011;6503;48.572;13.460;2022-09-09T02:24:21;13.52;;;8.35;;
12869;SDS011;6503;48.572;13.460;2022-09-09T02:26:51;12.93;;;8.70;;
12869;SDS011;6503;48.572;13.460;2022-09-09T02:29:30;14.23;;;8.75;;
12869;SDS011;6503;48.572;13.460;2022-09-09T02:32:03;17.77;;;9.18;;
12869;SDS011;6503;48.572;13.460;2022-09-09T02:34:35;14.38;;;9.63;;
12869;SDS011;6503;48.572;13.460;2022-09-09T02:37:09;15.90;;;9.82;;
12869;SDS011;6503;48.572;13.460;2022-09-09T02:39:41;14.32;;;9.70;;
12869;SDS011;6503;48.572;13.460;2022-09-09T02:42:11;15.23;;;10.30;;
12869;SDS011;6503;48.572;13.460;2022-09-09T02:44:43;17.13;;;11.37;;
12869;SDS011;6503;48.572;13.460;2022-09-09T02:47:16;20.42;;;11.77;;
12869;SDS011;6503;48.572;13.460;2022-09-09T02:49:57;16.75;;;11.25;;
12869;SDS011;6503;48.572;13.460;2022-09-09T02:52:41;19.40;;;11.45;;
12869;SDS011;6503;48.572;13.460;2022-09-09T02:55:26;22.17;;;12.55;;
12869;SDS011;6503;48.572;13.460;2022-09-09T02:58:05;17.95;;;13.07;;
12869;SDS011;6503;48.572;13.460;2022-09-09T03:00:39;22.00;;;13.18;;
12869;SDS011;6503;48.572;13.460;2022-09-09T03:03:10;23.73;;;13.73;;
12869;SDS011;6503;48.572;13.460;2022-09-09T03:05:40;23.40;;;14.75;;
12869;SDS011;6503;48.572;13.460;2022-09-09T03:08:10;27.05;;;15.52;;
12869;SDS011;6503;48.572;13.460;2022-09-09T03:10:42;25.70;;;16.08;;
12869;SDS011;6503;48.572;13.460;2022-09-09T03:13:11;24.90;;;15.50;;
12869;SDS011;6503;48.572;13.460;2022-09-09T03:15:44;27.23;;;16.37;;
12869;SDS011;6503;48.572;13.460;2022-09-09T03:18:14;22.73;;;15.20;;
12869;SDS011;6503;48.572;13.460;2022-09-09T03:20:45;24.80;;;14.82;;
12869;SDS011;6503;48.572;13.460;2022-09-09T03:23:15;23.13;;;14.55;;
12869;SDS011;6503;48.572;13.460;2022-09-09T03:25:48;23.77;;;15.10;;
12869;SDS011;6503;48.572;13.460;2022-09-09T03:28:18;22.27;;;13.73;;
12869;SDS011;6503;48.572;13.460;2022-09-09T03:30:51;26.05;;;14.82;;
12869;SDS011;6503;48.572;13.460;2022-09-09T03:33:26;28.10;;;15.23;;
12869;SDS011;6503;48.572;13.460;2022-09-09T03:35:56;26.40;;;15.57;;
12869;SDS011;6503;48.572;13.460;2022-09-09T03:38:26;26.67;;;16.07;;
12869;SDS011;6503;48.572;13.460;2022-09-09T03:40:56;27.17;;;15.75;;
12869;SDS011;6503;48.572;13.460;2022-09-09T03:43:28;26.70;;;15.27;;
12869;SDS011;6503;48.572;13.460;2022-09-09T03:46:00;26.63;;;16.35;;
12869;SDS011;6503;48.572;13.460;2022-09-09T03:48:29;26.05;;;16.27;;
12869;SDS011;6503;48.572;13.460;2022-09-09T03:51:00;27.55;;;16.20;;
12869;SDS011;6503;48.572;13.460;2022-09-09T03:55:59;24.42;;;16.02;;
12869;SDS011;6503;48.572;13.460;2022-09-09T03:58:29;23.90;;;15.65;;
12869;SDS011;6503;48.572;13.460;2022-09-09T04:01:01;23.83;;;14.75;;
12869;SDS011;6503;48.572;13.460;2022-09-09T04:03:32;26.55;;;15.48;;
12869;SDS011;6503;48.572;13.460;2022-09-09T04:06:02;26.33;;;15.17;;
12869;SDS011;6503;48.572;13.460;2022-09-09T04:08:33;22.90;;;15.07;;
12869;SDS011;6503;48.572;13.460;2022-09-09T04:11:03;22.00;;;13.70;;
12869;SDS011;6503;48.572;13.460;2022-09-09T04:13:33;26.65;;;15.57;;
12869;SDS011;6503;48.572;13.460;2022-09-09T04:16:07;20.83;;;14.05;;
12869;SDS011;6503;48.572;13.460;2022-09-09T04:18:39;21.73;;;14.85;;
12869;SDS011;6503;48.572;13.460;2022-09-09T04:21:10;21.00;;;14.95;;
12869;SDS011;6503;48.572;13.460;2022-09-09T04:23:41;21.88;;;15.73;;
12869;SDS011;6503;48.572;13.460;2022-09-09T04:26:11;22.97;;;14.90;;
12869;SDS011;6503;48.572;13.460;2022-09-09T04:28:41;19.67;;;14.05;;
12869;SDS011;6503;48.572;13.460;2022-09-09T04:31:16;20.60;;;13.85;;
12869;SDS011;6503;48.572;13.460;2022-09-09T04:33:48;23.27;;;14.77;;
12869;SDS011;6503;48.572;13.460;2022-09-09T04:36:18;22.67;;;14.45;;
12869;SDS011;6503;48.572;13.460;2022-09-09T04:38:49;19.92;;;14.10;;
12869;SDS011;6503;48.572;13.460;2022-09-09T04:41:20;24.60;;;15.25;;
12869;SDS011;6503;48.572;13.460;2022-09-09T04:43:49;21.70;;;15.15;;
12869;SDS011;6503;48.572;13.460;2022-09-09T04:46:21;22.35;;;15.38;;
12869;SDS011;6503;48.572;13.460;2022-09-09T04:48:51;24.08;;;15.73;;
12869;SDS011;6503;48.572;13.460;2022-09-09T04:51:21;22.13;;;15.27;;
12869;SDS011;6503;48.572;13.460;2022-09-09T04:53:51;23.27;;;15.75;;
12869;SDS011;6503;48.572;13.460;2022-09-09T04:56:21;21.05;;;14.43;;
12869;SDS011;6503;48.572;13.460;2022-09-09T04:58:53;24.17;;;15.10;;
12869;SDS011;6503;48.572;13.460;2022-09-09T05:01:24;24.10;;;14.55;;
12869;SDS011;6503;48.572;13.460;2022-09-09T05:03:54;19.35;;;13.50;;
12869;SDS011;6503;48.572;13.460;2022-09-09T05:06:24;19.25;;;13.82;;
12869;SDS011;6503;48.572;13.460;2022-09-09T05:08:53;19.55;;;13.32;;
12869;SDS011;6503;48.572;13.460;2022-09-09T05:11:24;18.23;;;13.98;;
12869;SDS011;6503;48.572;13.460;2022-09-09T05:13:55;25.02;;;14.88;;
12869;SDS011;6503;48.572;13.460;2022-09-09T05:16:32;20.48;;;14.15;;
12869;SDS011;6503;48.572;13.460;2022-09-09T05:19:02;21.17;;;14.20;;
12869;SDS011;6503;48.572;13.460;2022-09-09T05:21:34;21.73;;;14.68;;
12869;SDS011;6503;48.572;13.460;2022-09-09T05:24:04;19.90;;;13.57;;
12869;SDS011;6503;48.572;13.460;2022-09-09T05:26:34;19.47;;;12.93;;
12869;SDS011;6503;48.572;13.460;2022-09-09T05:29:04;17.77;;;12.52;;
12869;SDS011;6503;48.572;13.460;2022-09-09T05:31:36;17.40;;;11.57;;
12869;SDS011;6503;48.572;13.460;2022-09-09T05:34:05;16.75;;;12.13;;
12869;SDS011;6503;48.572;13.460;2022-09-09T05:36:35;15.80;;;11.98;;
12869;SDS011;6503;48.572;13.460;2022-09-09T05:39:04;15.15;;;10.65;;
12869;SDS011;6503;48.572;13.460;2022-09-09T05:41:35;15.52;;;11.93;;
12869;SDS011;6503;48.572;13.460;2022-09-09T05:44:05;14.70;;;10.55;;
12869;SDS011;6503;48.572;13.460;2022-09-09T05:46:37;14.57;;;10.85;;
12869;SDS011;6503;48.572;13.460;2022-09-09T05:49:07;15.40;;;10.13;;
12869;SDS011;6503;48.572;13.460;2022-09-09T05:51:36;15.77;;;11.75;;
12869;SDS011;6503;48.572;13.460;2022-09-09T05:54:06;15.98;;;11.25;;
12869;SDS011;6503;48.572;13.460;2022-09-09T05:56:36;16.08;;;11.90;;
12869;SDS011;6503;48.572;13.460;2022-09-09T05:59:05;16.83;;;11.55;;
12869;SDS011;6503;48.572;13.460;2022-09-09T06:01:39;18.25;;;11.95;;
12869;SDS011;6503;48.572;13.460;2022-09-09T06:04:09;14.25;;;10.57;;
12869;SDS011;6503;48.572;13.460;2022-09-09T06:06:38;20.08;;;11.60;;
12869;SDS011;6503;48.572;13.460;2022-09-09T06:09:09;16.30;;;10.25;;
12869;SDS011;6503;48.572;13.460;2022-09-09T06:11:39;14.32;;;10.25;;
12869;SDS011;6503;48.572;13.460;2022-09-09T06:14:11;16.00;;;10.43;;
12869;SDS011;6503;48.572;13.460;2022-09-09T06:16:42;14.48;;;9.93;;
12869;SDS011;6503;48.572;13.460;2022-09-09T06:19:12;15.30;;;9.30;;
12869;SDS011;6503;48.572;13.460;2022-09-09T06:21:42;13.00;;;9.73;;
12869;SDS011;6503;48.572;13.460;2022-09-09T06:24:13;18.00;;;8.90;;
12869;SDS011;6503;48.572;13.460;2022-09-09T06:26:45;11.63;;;8.48;;
12869;SDS011;6503;48.572;13.460;2022-09-09T06:29:15;11.15;;;8.90;;
12869;SDS011;6503;48.572;13.460;2022-09-09T06:31:47;14.27;;;9.52;;
12869;SDS011;6503;48.572;13.460;2022-09-09T06:34:17;12.63;;;8.30;;
12869;SDS011;6503;48.572;13.460;2022-09-09T06:36:47;13.88;;;9.70;;
12869;SDS011;6503;48.572;13.460;2022-09-09T06:39:18;15.52;;;11.00;;
12869;SDS011;6503;48.572;13.460;2022-09-09T06:41:47;16.17;;;10.07;;
12869;SDS011;6503;48.572;13.460;2022-09-09T06:44:19;13.50;;;9.40;;
12869;SDS011;6503;48.572;13.460;2022-09-09T06:46:51;15.65;;;10.10;;
12869;SDS011;6503;48.572;13.460;2022-09-09T06:49:21;11.95;;;9.77;;
12869;SDS011;6503;48.572;13.460;2022-09-09T06:51:50;13.93;;;8.95;;
12869;SDS011;6503;48.572;13.460;2022-09-09T06:54:20;11.00;;;8.68;;
12869;SDS011;6503;48.572;13.460;2022-09-09T06:56:50;12.23;;;8.57;;
12869;SDS011;6503;48.572;13.460;2022-09-09T06:59:19;11.27;;;8.38;;
12869;SDS011;6503;48.572;13.460;2022-09-09T07:01:51;12.93;;;8.17;;
12869;SDS011;6503;48.572;13.460;2022-09-09T07:04:21;12.48;;;8.30;;
12869;SDS011;6503;48.572;13.460;2022-09-09T07:06:51;12.43;;;7.68;;
12869;SDS011;6503;48.572;13.460;2022-09-09T07:09:21;14.05;;;8.50;;
12869;SDS011;6503;48.572;13.460;2022-09-09T07:11:53;9.57;;;7.78;;
12869;SDS011;6503;48.572;13.460;2022-09-09T07:14:24;10.70;;;8.00;;
12869;SDS011;6503;48.572;13.460;2022-09-09T07:16:55;15.85;;;8.98;;
12869;SDS011;6503;48.572;13.460;2022-09-09T07:19:27;11.98;;;8.10;;
12869;SDS011;6503;48.572;13.460;2022-09-09T07:24:28;9.93;;;7.85;;
12869;SDS011;6503;48.572;13.460;2022-09-09T07:26:58;12.82;;;8.18;;
12869;SDS011;6503;48.572;13.460;2022-09-09T07:29:29;12.88;;;8.80;;
12869;SDS011;6503;48.572;13.460;2022-09-09T07:32:01;11.60;;;8.73;;
12869;SDS011;6503;48.572;13.460;2022-09-09T07:34:32;10.77;;;8.63;;
12869;SDS011;6503;48.572;13.460;2022-09-09T07:39:33;11.60;;;8.75;;
12869;SDS011;6503;48.572;13.460;2022-09-09T07:42:03;11.38;;;7.78;;
12869;SDS011;6503;48.572;13.460;2022-09-09T07:44:35;12.35;;;8.57;;
12869;SDS011;6503;48.572;13.460;2022-09-09T07:47:08;12.40;;;8.23;;
12869;SDS011;6503;48.572;13.460;2022-09-09T07:49:38;11.93;;;8.02;;
12869;SDS011;6503;48.572;13.460;2022-09-09T07:52:07;14.32;;;9.05;;
12869;SDS011;6503;48.572;13.460;2022-09-09T07:54:38;13.15;;;8.98;;
12869;SDS011;6503;48.572;13.460;2022-09-09T07:59:38;12.17;;;8.40;;
12869;SDS011;6503;48.572;13.460;2022-09-09T08:04:22;14.32;;;8.77;;
12869;SDS011;6503;48.572;13.460;2022-09-09T08:06:55;12.77;;;8.13;;
12869;SDS011;6503;48.572;13.460;2022-09-09T08:09:25;11.65;;;8.18;;
12869;SDS011;6503;48.572;13.460;2022-09-09T08:11:55;11.18;;;8.05;;
12869;SDS011;6503;48.572;13.460;2022-09-09T08:14:27;13.40;;;9.05;;
12869;SDS011;6503;48.572;13.460;2022-09-09T08:17:00;14.07;;;9.15;;
12869;SDS011;6503;48.572;13.460;2022-09-09T08:19:33;10.45;;;8.30;;
12869;SDS011;6503;48.572;13.460;2022-09-09T08:22:03;13.02;;;7.75;;
12869;SDS011;6503;48.572;13.460;2022-09-09T08:24:34;13.60;;;8.20;;
12869;SDS011;6503;48.572;13.460;2022-09-09T08:27:04;10.00;;;8.32;;
12869;SDS011;6503;48.572;13.460;2022-09-09T08:29:36;11.68;;;8.90;;
12869;SDS011;6503;48.572;13.460;2022-09-09T08:32:06;10.68;;;8.18;;
12869;SDS011;6503;48.572;13.460;2022-09-09T08:34:41;10.98;;;7.53;;
12869;SDS011;6503;48.572;13.460;2022-09-09T08:37:11;10.73;;;8.43;;
12869;SDS011;6503;48.572;13.460;2022-09-09T08:39:44;9.38;;;7.60;;
12869;SDS011;6503;48.572;13.460;2022-09-09T08:45:25;26.73;;;19.48;;
12869;SDS011;6503;48.572;13.460;2022-09-09T08:48:07;10.15;;;7.47;;
12869;SDS011;6503;48.572;13.460;2022-09-09T08:50:53;9.15;;;7.18;;
12869;SDS011;6503;48.572;13.460;2022-09-09T08:53:28;11.68;;;7.95;;
12869;SDS011;6503;48.572;13.460;2022-09-09T08:56:09;11.20;;;8.30;;
12869;SDS011;6503;48.572;13.460;2022-09-09T08:58:43;10.63;;;6.70;;
12869;SDS011;6503;48.572;13.460;2022-09-09T09:04:11;9.05;;;6.85;;
12869;SDS011;6503;48.572;13.460;2022-09-09T09:07:08;10.77;;;7.25;;
12869;SDS011;6503;48.572;13.460;2022-09-09T09:09:52;8.15;;;6.20;;
12869;SDS011;6503;48.572;13.460;2022-09-09T09:12:31;12.65;;;6.47;;
12869;SDS011;6503;48.572;13.460;2022-09-09T09:15:11;9.70;;;5.93;;
12869;SDS011;6503;48.572;13.460;2022-09-09T09:17:47;8.07;;;5.53;;
12869;SDS011;6503;48.572;13.460;2022-09-09T09:20:18;9.48;;;6.20;;
12869;SDS011;6503;48.572;13.460;2022-09-09T09:22:59;6.68;;;5.07;;
12869;SDS011;6503;48.572;13.460;2022-09-09T09:25:34;9.93;;;5.43;;
12869;SDS011;6503;48.572;13.460;2022-09-09T09:28:11;7.55;;;5.63;;
12869;SDS011;6503;48.572;13.460;2022-09-09T09:30:47;7.93;;;5.30;;
12869;SDS011;6503;48.572;13.460;2022-09-09T09:33:24;11.27;;;5.20;;
12869;SDS011;6503;48.572;13.460;2022-09-09T09:36:00;8.13;;;6.03;;
12869;SDS011;6503;48.572;13.460;2022-09-09T09:38:35;10.75;;;6.95;;
12869;SDS011;6503;48.572;13.460;2022-09-09T09:41:06;11.10;;;6.90;;
12869;SDS011;6503;48.572;13.460;2022-09-09T09:43:37;8.98;;;5.95;;
12869;SDS011;6503;48.572;13.460;2022-09-09T09:46:19;10.85;;;6.65;;
12869;SDS011;6503;48.572;13.460;2022-09-09T09:48:59;8.73;;;6.82;;
12869;SDS011;6503;48.572;13.460;2022-09-09T09:51:30;9.68;;;6.90;;
12869;SDS011;6503;48.572;13.460;2022-09-09T09:54:13;8.95;;;7.15;;
12869;SDS011;6503;48.572;13.460;2022-09-09T09:56:47;7.95;;;5.95;;
12869;SDS011;6503;48.572;13.460;2022-09-09T09:59:21;7.72;;;5.80;;
12869;SDS011;6503;48.572;13.460;2022-09-09T10:02:15;10.02;;;5.30;;
12869;SDS011;6503;48.572;13.460;2022-09-09T10:04:47;8.52;;;5.97;;
12869;SDS011;6503;48.572;13.460;2022-09-09T10:07:30;7.70;;;5.57;;
12869;SDS011;6503;48.572;13.460;2022-09-09T10:10:07;6.70;;;4.97;;
12869;SDS011;6503;48.572;13.460;2022-09-09T10:12:45;6.68;;;4.88;;
12869;SDS011;6503;48.572;13.460;2022-09-09T10:15:35;6.00;;;4.57;;
12869;SDS011;6503;48.572;13.460;2022-09-09T10:21:20;6.25;;;3.80;;
12869;SDS011;6503;48.572;13.460;2022-09-09T10:24:19;6.50;;;3.50;;
12869;SDS011;6503;48.572;13.460;2022-09-09T10:27:22;6.13;;;2.70;;
12869;SDS011;6503;48.572;13.460;2022-09-09T10:30:05;5.82;;;4.50;;
12869;SDS011;6503;48.572;13.460;2022-09-09T10:32:48;7.78;;;4.82;;
12869;SDS011;6503;48.572;13.460;2022-09-09T10:35:31;9.57;;;5.25;;
12869;SDS011;6503;48.572;13.460;2022-09-09T10:38:18;7.45;;;4.95;;
12869;SDS011;6503;48.572;13.460;2022-09-09T10:41:03;4.82;;;4.13;;
12869;SDS011;6503;48.572;13.460;2022-09-09T10:44:00;6.72;;;4.68;;
12869;SDS011;6503;48.572;13.460;2022-09-09T10:50:11;7.95;;;4.55;;
12869;SDS011;6503;48.572;13.460;2022-09-09T10:53:00;8.20;;;4.88;;
12869;SDS011;6503;48.572;13.460;2022-09-09T10:55:40;14.82;;;4.20;;
12869;SDS011;6503;48.572;13.460;2022-09-09T10:58:14;8.73;;;3.67;;
12869;SDS011;6503;48.572;13.460;2022-09-09T11:00:55;5.55;;;4.15;;
12869;SDS011;6503;48.572;13.460;2022-09-09T11:03:33;7.63;;;4.40;;
12869;SDS011;6503;48.572;13.460;2022-09-09T11:06:10;5.53;;;4.00;;
12869;SDS011;6503;48.572;13.460;2022-09-09T11:08:43;9.35;;;4.07;;
12869;SDS011;6503;48.572;13.460;2022-09-09T11:11:17;8.70;;;5.20;;
12869;SDS011;6503;48.572;13.460;2022-09-09T11:13:52;6.80;;;3.83;;
12869;SDS011;6503;48.572;13.460;2022-09-09T11:16:33;6.95;;;4.07;;
12869;SDS011;6503;48.572;13.460;2022-09-09T11:19:11;8.70;;;4.35;;
12869;SDS011;6503;48.572;13.460;2022-09-09T11:21:47;12.18;;;5.00;;
12869;SDS011;6503;48.572;13.460;2022-09-09T11:24:20;7.10;;;4.80;;
12869;SDS011;6503;48.572;13.460;2022-09-09T11:26:52;7.75;;;4.88;;
12869;SDS011;6503;48.572;13.460;2022-09-09T11:29:38;6.47;;;4.93;;
12869;SDS011;6503;48.572;13.460;2022-09-09T11:32:47;11.32;;;6.13;;
12869;SDS011;6503;48.572;13.460;2022-09-09T11:35:44;12.50;;;5.70;;
12869;SDS011;6503;48.572;13.460;2022-09-09T11:38:27;8.35;;;5.47;;
12869;SDS011;6503;48.572;13.460;2022-09-09T11:41:01;8.00;;;6.00;;
12869;SDS011;6503;48.572;13.460;2022-09-09T11:43:34;7.88;;;5.93;;
12869;SDS011;6503;48.572;13.460;2022-09-09T11:46:10;10.65;;;7.90;;
12869;SDS011;6503;48.572;13.460;2022-09-09T11:48:56;10.48;;;7.45;;
12869;SDS011;6503;48.572;13.460;2022-09-09T11:51:30;7.82;;;6.03;;
12869;SDS011;6503;48.572;13.460;2022-09-09T11:54:01;8.05;;;6.47;;
12869;SDS011;6503;48.572;13.460;2022-09-09T11:56:54;15.52;;;6.50;;
12869;SDS011;6503;48.572;13.460;2022-09-09T11:59:26;10.98;;;6.50;;
12869;SDS011;6503;48.572;13.460;2022-09-09T12:01:57;14.65;;;6.88;;
12869;SDS011;6503;48.572;13.460;2022-09-09T12:04:33;9.82;;;6.57;;
12869;SDS011;6503;48.572;13.460;2022-09-09T12:07:21;12.65;;;7.47;;
12869;SDS011;6503;48.572;13.460;2022-09-09T12:09:58;10.20;;;7.28;;
12869;SDS011;6503;48.572;13.460;2022-09-09T12:12:34;14.60;;;7.68;;
12869;SDS011;6503;48.572;13.460;2022-09-09T12:15:23;9.48;;;6.47;;
12869;SDS011;6503;48.572;13.460;2022-09-09T12:17:55;7.72;;;5.63;;
12869;SDS011;6503;48.572;13.460;2022-09-09T12:20:34;9.02;;;5.80;;
12869;SDS011;6503;48.572;13.460;2022-09-09T12:23:16;11.27;;;7.00;;
12869;SDS011;6503;48.572;13.460;2022-09-09T12:26:07;7.47;;;5.32;;
12869;SDS011;6503;48.572;13.460;2022-09-09T12:28:58;10.18;;;6.00;;
12869;SDS011;6503;48.572;13.460;2022-09-09T12:31:39;9.68;;;6.35;;
12869;SDS011;6503;48.572;13.460;2022-09-09T12:34:15;8.80;;;5.82;;
12869;SDS011;6503;48.572;13.460;2022-09-09T12:37:02;8.90;;;5.35;;
12869;SDS011;6503;48.572;13.460;2022-09-09T12:39:36;9.32;;;5.80;;
12869;SDS011;6503;48.572;13.460;2022-09-09T12:42:22;9.88;;;5.63;;
12869;SDS011;6503;48.572;13.460;2022-09-09T12:44:55;9.15;;;5.28;;
12869;SDS011;6503;48.572;13.460;2022-09-09T12:47:27;12.52;;;6.82;;
12869;SDS011;6503;48.572;13.460;2022-09-09T12:50:04;9.50;;;5.20;;
12869;SDS011;6503;48.572;13.460;2022-09-09T12:52:57;6.93;;;5.63;;
12869;SDS011;6503;48.572;13.460;2022-09-09T12:55:32;7.53;;;4.80;;
12869;SDS011;6503;48.572;13.460;2022-09-09T12:58:06;6.40;;;4.40;;
12869;SDS011;6503;48.572;13.460;2022-09-09T13:00:36;8.85;;;5.03;;
12869;SDS011;6503;48.572;13.460;2022-09-09T13:03:16;7.78;;;5.35;;
12869;SDS011;6503;48.572;13.460;2022-09-09T13:05:50;6.22;;;4.30;;
12869;SDS011;6503;48.572;13.460;2022-09-09T13:08:23;7.53;;;3.90;;
12869;SDS011;6503;48.572;13.460;2022-09-09T13:10:54;8.27;;;4.65;;
12869;SDS011;6503;48.572;13.460;2022-09-09T13:13:30;8.88;;;4.63;;
12869;SDS011;6503;48.572;13.460;2022-09-09T13:16:05;7.00;;;4.93;;
12869;SDS011;6503;48.572;13.460;2022-09-09T13:18:47;7.50;;;4.38;;
12869;SDS011;6503;48.572;13.460;2022-09-09T13:21:19;7.90;;;4.32;;
12869;SDS011;6503;48.572;13.460;2022-09-09T13:24:03;8.82;;;4.15;;
12869;SDS011;6503;48.572;13.460;2022-09-09T13:26:35;5.38;;;3.72;;
12869;SDS011;6503;48.572;13.460;2022-09-09T13:29:16;5.85;;;3.33;;
12869;SDS011;6503;48.572;13.460;2022-09-09T13:31:47;5.70;;;3.72;;
12869;SDS011;6503;48.572;13.460;2022-09-09T13:34:26;8.75;;;4.70;;
12869;SDS011;6503;48.572;13.460;2022-09-09T13:36:59;10.00;;;6.00;;
12869;SDS011;6503;48.572;13.460;2022-09-09T13:39:34;7.43;;;5.03;;
12869;SDS011;6503;48.572;13.460;2022-09-09T13:42:05;5.80;;;4.05;;
12869;SDS011;6503;48.572;13.460;2022-09-09T13:44:51;7.60;;;4.38;;
12869;SDS011;6503;48.572;13.460;2022-09-09T13:47:28;7.18;;;4.55;;
12869;SDS011;6503;48.572;13.460;2022-09-09T13:50:15;6.20;;;4.10;;
12869;SDS011;6503;48.572;13.460;2022-09-09T13:52:48;6.30;;;4.45;;
12869;SDS011;6503;48.572;13.460;2022-09-09T13:55:22;6.00;;;4.20;;
12869;SDS011;6503;48.572;13.460;2022-09-09T13:57:53;6.50;;;3.25;;
12869;SDS011;6503;48.572;13.460;2022-09-09T14:00:25;10.38;;;5.90;;
12869;SDS011;6503;48.572;13.460;2022-09-09T14:02:57;4.97;;;2.80;;
12869;SDS011;6503;48.572;13.460;2022-09-09T14:05:40;5.28;;;3.35;;
12869;SDS011;6503;48.572;13.460;2022-09-09T14:08:15;3.40;;;2.63;;
12869;SDS011;6503;48.572;13.460;2022-09-09T14:10:54;4.50;;;3.08;;
12869;SDS011;6503;48.572;13.460;2022-09-09T14:13:27;3.05;;;2.53;;
12869;SDS011;6503;48.572;13.460;2022-09-09T14:15:57;8.60;;;2.63;;
12869;SDS011;6503;48.572;13.460;2022-09-09T14:18:32;3.65;;;2.50;;
12869;SDS011;6503;48.572;13.460;2022-09-09T14:21:02;4.82;;;1.90;;
12869;SDS011;6503;48.572;13.460;2022-09-09T14:23:32;3.45;;;2.10;;
12869;SDS011;6503;48.572;13.460;2022-09-09T14:26:10;4.57;;;2.45;;
12869;SDS011;6503;48.572;13.460;2022-09-09T14:28:40;4.22;;;2.80;;
12869;SDS011;6503;48.572;13.460;2022-09-09T14:31:11;3.63;;;2.78;;
12869;SDS011;6503;48.572;13.460;2022-09-09T14:33:43;9.27;;;2.75;;
12869;SDS011;6503;48.572;13.460;2022-09-09T14:36:13;6.38;;;3.00;;
12869;SDS011;6503;48.572;13.460;2022-09-09T14:38:43;5.65;;;2.47;;
12869;SDS011;6503;48.572;13.460;2022-09-09T14:41:15;4.70;;;3.03;;
12869;SDS011;6503;48.572;13.460;2022-09-09T14:43:46;4.38;;;3.72;;
12869;SDS011;6503;48.572;13.460;2022-09-09T14:46:16;7.78;;;3.80;;
12869;SDS011;6503;48.572;13.460;2022-09-09T14:48:49;4.30;;;3.90;;
12869;SDS011;6503;48.572;13.460;2022-09-09T14:51:19;5.18;;;4.03;;
12869;SDS011;6503;48.572;13.460;2022-09-09T14:53:51;9.73;;;4.25;;
12869;SDS011;6503;48.572;13.460;2022-09-09T14:56:24;7.75;;;4.80;;
12869;SDS011;6503;48.572;13.460;2022-09-09T14:58:56;6.03;;;4.40;;
12869;SDS011;6503;48.572;13.460;2022-09-09T15:01:27;3.85;;;3.45;;
12869;SDS011;6503;48.572;13.460;2022-09-09T15:03:59;5.45;;;3.70;;
12869;SDS011;6503;48.572;13.460;2022-09-09T15:06:34;17.58;;;14.35;;
12869;SDS011;6503;48.572;13.460;2022-09-09T15:11:48;6.65;;;3.97;;
12869;SDS011;6503;48.572;13.460;2022-09-09T15:14:19;6.53;;;3.95;;
12869;SDS011;6503;48.572;13.460;2022-09-09T15:16:49;4.90;;;3.35;;
12869;SDS011;6503;48.572;13.460;2022-09-09T15:19:20;4.65;;;2.80;;
12869;SDS011;6503;48.572;13.460;2022-09-09T15:21:51;6.65;;;3.30;;
12869;SDS011;6503;48.572;13.460;2022-09-09T15:24:24;7.55;;;4.72;;
12869;SDS011;6503;48.572;13.460;2022-09-09T15:26:56;4.78;;;3.53;;
12869;SDS011;6503;48.572;13.460;2022-09-09T15:29:27;5.20;;;3.13;;
12869;SDS011;6503;48.572;13.460;2022-09-09T15:31:57;8.60;;;3.33;;
12869;SDS011;6503;48.572;13.460;2022-09-09T15:34:27;2.70;;;2.47;;
12869;SDS011;6503;48.572;13.460;2022-09-09T15:36:57;6.65;;;3.55;;
12869;SDS011;6503;48.572;13.460;2022-09-09T15:39:27;5.82;;;3.75;;
12869;SDS011;6503;48.572;13.460;2022-09-09T15:41:59;7.47;;;3.97;;
12869;SDS011;6503;48.572;13.460;2022-09-09T15:44:30;8.13;;;4.03;;
12869;SDS011;6503;48.572;13.460;2022-09-09T15:47:11;5.50;;;4.20;;
12869;SDS011;6503;48.572;13.460;2022-09-09T15:49:41;6.03;;;4.25;;
12869;SDS011;6503;48.572;13.460;2022-09-09T15:52:12;6.03;;;4.80;;
12869;SDS011;6503;48.572;13.460;2022-09-09T15:54:42;5.30;;;4.43;;
12869;SDS011;6503;48.572;13.460;2022-09-09T15:57:15;5.57;;;4.00;;